createdAt,value
2023-02-21T00:01:21.276Z,100496.63
2023-02-21T00:04:43.587Z,100486.72
2023-02-21T00:08:05.597Z,100482.09
2023-02-21T00:11:27.084Z,100485.31
2023-02-21T00:14:48.545Z,100481.06
2023-02-21T00:18:09.702Z,100486.75
2023-02-21T00:21:31.718Z,100482.09
2023-02-21T00:24:53.970Z,100485.59
2023-02-21T00:28:15.265Z,100486.09
2023-02-21T00:31:38.441Z,100483.03
2023-02-21T00:35:00.823Z,100493.75
2023-02-21T00:38:25.533Z,100480.28
2023-02-21T00:41:48.552Z,100487.88
2023-02-21T00:45:10.482Z,100490.06
2023-02-21T00:48:39.837Z,100494.13
2023-02-21T00:52:01.297Z,100483.66
2023-02-21T00:55:22.838Z,100484.06
2023-02-21T00:58:44.335Z,100488.38
2023-02-21T01:02:05.837Z,100470.63
2023-02-21T01:05:28.028Z,100476.66
2023-02-21T01:08:51.668Z,100484.19
2023-02-21T01:12:13.994Z,100476.03
2023-02-21T01:15:35.887Z,100472.19
2023-02-21T01:18:57.996Z,100471.69
2023-02-21T01:22:20.890Z,100478.84
2023-02-21T01:25:42.392Z,100483.75
2023-02-21T01:29:06.542Z,100476.75
2023-02-21T01:32:28.772Z,100479.38
2023-02-21T01:35:50.131Z,100474.06
2023-02-21T01:39:11.538Z,100477.44
2023-02-21T01:42:32.413Z,100462.38
2023-02-21T01:46:06.018Z,100451.53
2023-02-21T01:49:37.954Z,100445.44
2023-02-21T01:53:00.175Z,100441.97
2023-02-21T01:56:22.792Z,100442.97
2023-02-21T01:59:44.770Z,100447.91
2023-02-21T02:03:17.901Z,100441.25
2023-02-21T02:06:39.264Z,100440.13
2023-02-21T02:10:02.022Z,100438.53
2023-02-21T02:13:53.336Z,100441.53
2023-02-21T02:17:27.785Z,100439.25
2023-02-21T02:21:07.991Z,100427.97
2023-02-21T02:24:48.093Z,100422.88
2023-02-21T02:27:54.393Z,100416.78
2023-02-21T02:31:28.314Z,100420.16
2023-02-21T02:34:31.867Z,100419.63
2023-02-21T02:38:03.570Z,100418.91
2023-02-21T02:41:51.888Z,100412.81
2023-02-21T02:45:03.758Z,100409.16
2023-02-21T02:48:14.673Z,100406.09
2023-02-21T02:51:18.396Z,100404.75
2023-02-21T02:54:22.265Z,100405.59
2023-02-21T02:57:26.038Z,100398.63
2023-02-21T03:00:34.724Z,100397.06
2023-02-21T03:03:44.485Z,100395.38
2023-02-21T03:07:06.362Z,100408.84
2023-02-21T03:10:24.657Z,100407.16
2023-02-21T03:14:15.668Z,100408.13
2023-02-21T03:17:23.114Z,100401.31
2023-02-21T03:20:28.887Z,100402.63
2023-02-21T03:23:34.888Z,100413.19
2023-02-21T03:26:42.606Z,100415.09
2023-02-21T03:30:10.732Z,100417.03
2023-02-21T03:33:14.651Z,100415.22
2023-02-21T03:36:17.394Z,100412.81
2023-02-21T03:39:20.808Z,100421.25
2023-02-21T03:42:24.682Z,100416.84
2023-02-21T03:45:27.792Z,100418.09
2023-02-21T03:48:50.530Z,100424.97
2023-02-21T03:51:58.995Z,100423.63
2023-02-21T03:55:02.586Z,100417.28
2023-02-21T03:58:07.275Z,100418.34
2023-02-21T04:01:12.742Z,100418.72
2023-02-21T04:04:16.599Z,100416.00
2023-02-21T04:07:21.674Z,100411.69
2023-02-21T04:10:28.013Z,100427.19
2023-02-21T04:13:32.530Z,100425.72
2023-02-21T04:16:36.109Z,100429.31
2023-02-21T04:19:38.792Z,100414.94
2023-02-21T04:22:43.264Z,100424.53
2023-02-21T04:25:48.474Z,100422.34
2023-02-21T04:29:00.288Z,100419.44
2023-02-21T04:32:03.874Z,100415.53
2023-02-21T04:35:08.588Z,100418.97
2023-02-21T04:38:12.674Z,100413.56
2023-02-21T04:41:16.937Z,100417.50
2023-02-21T04:44:20.244Z,100407.84
2023-02-21T04:47:22.888Z,100418.84
2023-02-21T04:50:25.793Z,100416.69
2023-02-21T04:53:30.194Z,100416.78
2023-02-21T04:56:34.106Z,100419.84
2023-02-21T04:59:37.686Z,100415.53
2023-02-21T05:02:43.509Z,100413.56
2023-02-21T05:05:46.264Z,100413.94
2023-02-21T05:08:49.460Z,100403.63
2023-02-21T05:11:52.701Z,100417.56
2023-02-21T05:14:55.265Z,100403.09
2023-02-21T05:17:58.630Z,100414.06
2023-02-21T05:21:03.344Z,100407.78
2023-02-21T05:24:13.893Z,100408.13
2023-02-21T05:27:18.684Z,100403.81
2023-02-21T05:30:24.057Z,100396.81
2023-02-21T05:33:27.690Z,100406.81
2023-02-21T05:36:30.537Z,100407.47
2023-02-21T05:39:33.270Z,100408.72
2023-02-21T05:42:36.638Z,100407.03
2023-02-21T05:45:39.247Z,100395.53
2023-02-21T05:48:43.190Z,100406.75
2023-02-21T05:51:46.075Z,100397.81
2023-02-21T05:54:49.098Z,100404.56
2023-02-21T05:57:53.600Z,100407.28
2023-02-21T06:00:57.219Z,100413.88
2023-02-21T06:04:00.834Z,100409.91
2023-02-21T06:07:04.171Z,100414.94
2023-02-21T06:10:07.822Z,100421.19
2023-02-21T06:13:12.874Z,100423.97
2023-02-21T06:16:16.217Z,100421.34
2023-02-21T06:19:19.280Z,100425.69
2023-02-21T06:22:21.858Z,100420.47
2023-02-21T06:25:24.498Z,100431.59
2023-02-21T06:28:31.427Z,100427.63
2023-02-21T06:31:36.521Z,100432.91
2023-02-21T06:34:39.373Z,100444.53
2023-02-21T06:37:42.729Z,100440.47
2023-02-21T06:40:46.303Z,100445.81
2023-02-21T06:43:49.714Z,100451.56
2023-02-21T06:46:54.928Z,100444.91
2023-02-21T06:49:58.358Z,100444.72
2023-02-21T06:53:01.210Z,100449.22
2023-02-21T06:56:07.928Z,100447.94
2023-02-21T06:59:11.302Z,100458.13
2023-02-21T07:02:59.784Z,100461.41
2023-02-21T07:06:19.284Z,100462.59
2023-02-21T07:09:35.984Z,100469.84
2023-02-21T07:12:41.907Z,100469.25
2023-02-21T07:15:47.716Z,100470.75
2023-02-21T07:18:50.860Z,100472.22
2023-02-21T07:21:57.874Z,100479.16
2023-02-21T07:25:19.669Z,100474.47
2023-02-21T07:28:29.607Z,100482.13
2023-02-21T07:31:33.506Z,100483.41
2023-02-21T07:34:36.767Z,100484.56
2023-02-21T07:38:06.916Z,100479.13
2023-02-21T07:41:42.866Z,100478.16
2023-02-21T07:45:03.440Z,100469.50
2023-02-21T07:48:26.123Z,100481.28
2023-02-21T07:51:40.820Z,100468.50
2023-02-21T07:54:47.484Z,100476.66
2023-02-21T07:57:54.910Z,100475.41
2023-02-21T08:00:58.578Z,100464.75
2023-02-21T08:04:02.090Z,100478.94
2023-02-21T08:07:06.923Z,100460.13
2023-02-21T08:10:13.408Z,100462.03
2023-02-21T08:13:20.542Z,100457.81
2023-02-21T08:16:24.458Z,100457.19
2023-02-21T08:19:29.459Z,100475.94
2023-02-21T08:22:32.273Z,100453.97
2023-02-21T08:25:35.970Z,100475.09
2023-02-21T08:28:39.149Z,100465.56
2023-02-21T08:31:44.510Z,100473.50
2023-02-21T08:34:51.003Z,100457.81
2023-02-21T08:37:56.944Z,100451.75
2023-02-21T08:41:00.540Z,100470.06
2023-02-21T08:44:04.765Z,100471.69
2023-02-21T08:47:14.661Z,100454.84
2023-02-21T08:50:20.940Z,100496.44
2023-02-21T08:53:23.780Z,100468.00
2023-02-21T08:56:27.983Z,100470.84
2023-02-21T08:59:33.727Z,100446.72
2023-02-21T09:02:41.662Z,100449.81
2023-02-21T09:05:47.562Z,100449.53
2023-02-21T09:08:56.489Z,100454.78
2023-02-21T09:12:08.969Z,100453.34
2023-02-21T09:15:24.811Z,100463.31
2023-02-21T09:18:33.487Z,100450.53
2023-02-21T09:21:36.983Z,100442.28
2023-02-21T09:24:44.792Z,100448.53
2023-02-21T09:27:47.752Z,100454.06
2023-02-21T09:30:52.067Z,100464.59
2023-02-21T09:33:55.965Z,100450.47
2023-02-21T09:36:59.841Z,100457.81
2023-02-21T09:40:36.438Z,100444.50
2023-02-21T09:43:59.440Z,100465.03
2023-02-21T09:47:07.788Z,100454.69
2023-02-21T09:50:22.577Z,100468.13
2023-02-21T09:53:39.265Z,100461.59
2023-02-21T09:56:42.286Z,100457.56
2023-02-21T09:59:46.323Z,100481.34
2023-02-21T10:03:15.276Z,100470.53
2023-02-21T10:06:24.029Z,100478.84
2023-02-21T10:09:57.231Z,100469.91
2023-02-21T10:13:22.889Z,100472.13
2023-02-21T10:16:34.102Z,100473.97
2023-02-21T10:19:43.529Z,100480.03
2023-02-21T10:22:49.439Z,100468.22
2023-02-21T10:26:06.231Z,100460.78
2023-02-21T10:29:24.525Z,100468.03
2023-02-21T10:32:42.137Z,100469.81
2023-02-21T10:35:59.006Z,100488.31
2023-02-21T10:39:17.268Z,100474.56
2023-02-21T10:42:42.862Z,100474.03
2023-02-21T10:46:09.142Z,100482.53
2023-02-21T10:49:19.194Z,100478.31
2023-02-21T10:52:36.591Z,100479.34
2023-02-21T10:55:44.613Z,100478.28
2023-02-21T10:59:10.741Z,100473.56
2023-02-21T11:02:57.731Z,100470.28
2023-02-21T11:06:02.028Z,100478.16
2023-02-21T11:09:34.069Z,100465.38
2023-02-21T11:12:37.536Z,100456.81
2023-02-21T11:15:41.838Z,100451.91
2023-02-21T11:18:47.952Z,100457.00
2023-02-21T11:22:01.304Z,100464.13
2023-02-21T11:25:18.642Z,100447.25
2023-02-21T11:28:28.591Z,100446.06
2023-02-21T11:31:36.298Z,100460.00
2023-02-21T11:34:51.468Z,100455.34
2023-02-21T11:38:06.275Z,100450.16
2023-02-21T11:41:21.266Z,100450.31
2023-02-21T11:44:38.183Z,100443.53
2023-02-21T11:47:55.299Z,100454.44
2023-02-21T11:51:10.247Z,100448.66
2023-02-21T11:54:14.254Z,100436.44
2023-02-21T11:57:32.592Z,100434.34
2023-02-21T12:01:05.805Z,100422.31
2023-02-21T12:04:27.970Z,100433.25
2023-02-21T12:07:36.078Z,100430.31
2023-02-21T12:10:53.983Z,100438.38
2023-02-21T12:14:12.553Z,100435.97
2023-02-21T12:17:46.585Z,100439.97
2023-02-21T12:22:02.850Z,100431.47
2023-02-21T12:25:44.387Z,100438.53
2023-02-21T12:29:08.013Z,100440.78
2023-02-21T12:32:35.937Z,100432.44
2023-02-21T12:36:02.679Z,100430.34
2023-02-21T12:40:00.269Z,100424.53
2023-02-21T12:43:23.785Z,100430.78
2023-02-21T12:47:01.800Z,100426.47
2023-02-21T12:50:16.127Z,100418.91
2023-02-21T12:53:25.987Z,100418.22
2023-02-21T12:57:18.404Z,100411.59
2023-02-21T13:02:02.530Z,100417.94
2023-02-21T13:05:20.013Z,100404.94
2023-02-21T13:08:37.675Z,100418.41
2023-02-21T13:12:01.531Z,100418.31
2023-02-21T13:15:22.625Z,100442.06
2023-02-21T13:18:39.559Z,100433.34
2023-02-21T13:21:55.294Z,100415.59
2023-02-21T13:25:12.876Z,100432.91
2023-02-21T13:28:25.790Z,100413.00
2023-02-21T13:31:39.321Z,100423.25
2023-02-21T13:34:55.994Z,100408.97
2023-02-21T13:38:01.846Z,100418.75
2023-02-21T13:41:17.080Z,100407.72
2023-02-21T13:44:25.831Z,100411.09
2023-02-21T13:47:57.403Z,100406.75
2023-02-21T13:51:01.618Z,100404.34
2023-02-21T13:54:13.209Z,100411.09
2023-02-21T13:57:31.838Z,100413.81
2023-02-21T14:00:35.768Z,100397.59
2023-02-21T14:03:44.327Z,100412.53
2023-02-21T14:07:20.642Z,100421.28
2023-02-21T14:10:44.521Z,100419.91
2023-02-21T14:13:56.145Z,100417.00
2023-02-21T14:17:06.174Z,100424.47
2023-02-21T14:20:16.844Z,100430.31
2023-02-21T14:23:42.261Z,100412.50
2023-02-21T14:27:01.767Z,100424.09
2023-02-21T14:30:30.305Z,100414.94
2023-02-21T14:33:34.617Z,100404.91
2023-02-21T14:36:38.798Z,100420.06
2023-02-21T14:39:56.215Z,100423.69
2023-02-21T14:43:23.256Z,100424.72
2023-02-21T14:47:03.564Z,100420.72
2023-02-21T14:50:38.213Z,100430.22
2023-02-21T14:54:18.017Z,100424.56
2023-02-21T14:57:42.638Z,100419.91
2023-02-21T15:01:19.794Z,100417.94
2023-02-21T15:04:30.249Z,100421.19
2023-02-21T15:07:55.159Z,100413.88
2023-02-21T15:11:19.953Z,100422.72
2023-02-21T15:14:29.495Z,100419.00
2023-02-21T15:17:35.026Z,100404.75
2023-02-21T15:20:46.654Z,100409.22
2023-02-21T15:24:01.929Z,100412.22
2023-02-21T15:27:13.014Z,100409.81
2023-02-21T15:30:23.575Z,100402.59
2023-02-21T15:33:28.102Z,100398.25
2023-02-21T15:36:33.044Z,100410.44
2023-02-21T15:39:39.593Z,100401.47
2023-02-21T15:42:45.431Z,100412.25
2023-02-21T15:45:52.771Z,100413.19
2023-02-21T15:49:00.031Z,100415.75
2023-02-21T15:52:03.826Z,100413.97
2023-02-21T15:55:29.421Z,100428.63
2023-02-21T15:58:32.233Z,100435.41
2023-02-21T16:01:35.658Z,100431.72
2023-02-21T16:04:41.260Z,100437.38
2023-02-21T16:07:45.970Z,100437.09
2023-02-21T16:11:02.544Z,100441.34
2023-02-21T16:14:05.469Z,100447.56
2023-02-21T16:17:24.385Z,100449.47
2023-02-21T16:20:38.849Z,100454.47
2023-02-21T16:23:45.065Z,100455.34
2023-02-21T16:27:02.962Z,100457.38
2023-02-21T16:30:12.560Z,100453.25
2023-02-21T16:33:18.288Z,100466.91
2023-02-21T16:36:27.552Z,100473.44
2023-02-21T16:39:30.957Z,100479.00
2023-02-21T16:42:34.183Z,100475.00
2023-02-21T16:45:37.163Z,100476.59
2023-02-21T16:48:40.112Z,100483.22
2023-02-21T16:51:45.171Z,100471.38
2023-02-21T16:54:47.779Z,100471.53
2023-02-21T16:57:53.956Z,100472.13
2023-02-21T17:01:08.277Z,100474.38
2023-02-21T17:04:24.191Z,100481.75
2023-02-21T17:07:27.988Z,100478.59
2023-02-21T17:10:32.774Z,100481.78
2023-02-21T17:13:35.695Z,100477.16
2023-02-21T17:16:39.675Z,100483.22
2023-02-21T17:19:42.866Z,100491.25
2023-02-21T17:22:45.850Z,100489.81
2023-02-21T17:25:51.038Z,100490.78
2023-02-21T17:28:53.936Z,100481.16
2023-02-21T17:31:59.080Z,100490.09
2023-02-21T17:35:01.867Z,100488.84
2023-02-21T17:38:05.545Z,100492.88
2023-02-21T17:41:09.476Z,100497.28
2023-02-21T17:44:13.275Z,100501.38
2023-02-21T17:47:18.684Z,100499.97
2023-02-21T17:50:22.830Z,100494.78
2023-02-21T17:53:25.773Z,100498.56
2023-02-21T17:56:58.778Z,100505.06
2023-02-21T18:00:28.424Z,100508.28
2023-02-21T18:03:31.496Z,100506.16
2023-02-21T18:06:34.376Z,100495.94
2023-02-21T18:09:37.020Z,100487.41
2023-02-21T18:12:40.544Z,100495.28
2023-02-21T18:15:44.107Z,100478.38
2023-02-21T18:18:47.766Z,100481.47
2023-02-21T18:21:51.260Z,100483.13
2023-02-21T18:24:55.111Z,100485.53
2023-02-21T18:27:58.695Z,100492.19
2023-02-21T18:31:02.354Z,100470.06
2023-02-21T18:34:07.738Z,100479.63
2023-02-21T18:37:10.980Z,100480.13
2023-02-21T18:40:16.996Z,100476.91
2023-02-21T18:43:25.254Z,100483.59
2023-02-21T18:46:29.081Z,100479.66
2023-02-21T18:49:38.631Z,100488.31
2023-02-21T18:52:41.667Z,100486.19
2023-02-21T18:55:44.955Z,100487.84
2023-02-21T18:58:49.531Z,100488.56
2023-02-21T19:01:55.024Z,100484.34
2023-02-21T19:04:58.697Z,100487.69
2023-02-21T19:08:01.931Z,100490.97
2023-02-21T19:11:08.543Z,100484.16
2023-02-21T19:14:12.265Z,100492.75
2023-02-21T19:17:14.958Z,100492.19
2023-02-21T19:20:19.883Z,100500.66
2023-02-21T19:23:24.348Z,100495.84
2023-02-21T19:26:29.719Z,100496.53
2023-02-21T19:29:32.651Z,100500.97
2023-02-21T19:32:37.412Z,100497.94
2023-02-21T19:35:40.306Z,100496.66
2023-02-21T19:38:43.269Z,100503.22
2023-02-21T19:41:46.959Z,100504.19
2023-02-21T19:44:49.988Z,100501.69
2023-02-21T19:47:52.861Z,100512.09
2023-02-21T19:50:58.747Z,100512.31
2023-02-21T19:54:02.782Z,100508.19
2023-02-21T19:57:06.208Z,100508.94
2023-02-21T20:00:11.877Z,100500.66
2023-02-21T20:03:18.216Z,100506.03
2023-02-21T20:06:24.717Z,100511.06
2023-02-21T20:09:28.709Z,100505.53
2023-02-21T20:12:31.577Z,100509.06
2023-02-21T20:15:36.146Z,100514.28
2023-02-21T20:18:41.797Z,100506.34
2023-02-21T20:21:45.952Z,100512.47
2023-02-21T20:24:49.863Z,100512.78
2023-02-21T20:27:54.830Z,100521.53
2023-02-21T20:30:58.335Z,100517.44
2023-02-21T20:34:03.125Z,100519.34
2023-02-21T20:37:06.718Z,100521.63
2023-02-21T20:40:11.140Z,100528.97
2023-02-21T20:43:14.282Z,100523.94
2023-02-21T20:46:22.833Z,100528.25
2023-02-21T20:49:26.127Z,100530.44
2023-02-21T20:52:29.836Z,100531.75
2023-02-21T20:55:32.702Z,100536.13
2023-02-21T20:58:37.356Z,100527.19
2023-02-21T21:01:40.260Z,100531.31
2023-02-21T21:04:45.748Z,100529.63
2023-02-21T21:07:48.851Z,100531.59
2023-02-21T21:10:52.400Z,100542.66
2023-02-21T21:13:55.385Z,100535.16
2023-02-21T21:17:00.626Z,100544.44
2023-02-21T21:20:10.471Z,100547.31
2023-02-21T21:23:13.978Z,100545.03
2023-02-21T21:26:17.031Z,100537.78
2023-02-21T21:29:22.528Z,100551.66
2023-02-21T21:32:25.396Z,100541.41
2023-02-21T21:35:32.416Z,100554.09
2023-02-21T21:38:38.801Z,100543.69
2023-02-21T21:41:46.554Z,100542.41
2023-02-21T21:44:53.893Z,100545.09
2023-02-21T21:48:00.316Z,100545.13
2023-02-21T21:51:03.961Z,100543.81
2023-02-21T21:54:07.321Z,100547.41
2023-02-21T21:57:10.850Z,100543.47
2023-02-21T22:00:24.516Z,100555.63
2023-02-21T22:03:29.158Z,100547.88
2023-02-21T22:06:32.070Z,100552.03
2023-02-21T22:09:35.667Z,100548.50
2023-02-21T22:12:39.375Z,100555.31
2023-02-21T22:15:43.838Z,100560.59
2023-02-21T22:18:46.988Z,100561.25
2023-02-21T22:21:54.784Z,100558.09
2023-02-21T22:24:57.351Z,100562.34
2023-02-21T22:28:04.540Z,100569.31
2023-02-21T22:31:10.173Z,100564.69
2023-02-21T22:34:23.731Z,100564.25
2023-02-21T22:37:28.260Z,100557.31
2023-02-21T22:40:35.591Z,100559.78
2023-02-21T22:43:40.440Z,100554.44
2023-02-21T22:46:46.547Z,100555.63
2023-02-21T22:49:49.964Z,100562.09
2023-02-21T22:52:59.716Z,100562.59
2023-02-21T22:56:03.441Z,100551.47
2023-02-21T22:59:15.195Z,100562.75
2023-02-21T23:02:18.486Z,100558.78
2023-02-21T23:05:22.087Z,100565.91
2023-02-21T23:08:27.166Z,100564.00
2023-02-21T23:11:31.340Z,100562.97
2023-02-21T23:14:35.407Z,100571.97
2023-02-21T23:17:38.384Z,100565.03
2023-02-21T23:20:44.845Z,100562.00
2023-02-21T23:23:47.936Z,100553.06
2023-02-21T23:26:54.008Z,100567.06
2023-02-21T23:29:56.831Z,100559.06
2023-02-21T23:33:00.581Z,100552.84
2023-02-21T23:36:04.808Z,100560.38
2023-02-21T23:39:11.657Z,100552.84
2023-02-21T23:42:17.511Z,100557.75
2023-02-21T23:45:23.359Z,100552.38
2023-02-21T23:48:26.658Z,100552.97
2023-02-21T23:51:30.206Z,100556.47
2023-02-21T23:54:32.787Z,100550.00
2023-02-21T23:57:35.542Z,100549.72
